Time;durP1;ratioP1;P1;durP2;ratioP2;P2;SDS_P1;SDS_P2;PMS_P1;PMS_P2;Temp;Humidity;BMP_temperature;BMP_pressure;BME280_temperature;BME280_humidity;BME280_pressure;Samples;Min_cycle;Max_cycle;Signal;HPM_P1;HPM_P2
2021/12/12 00:01:57;;;;;;;17.00;6.05;;;2.60;99.90;;;0.81;100.00;101815.81;2568272;30;139128;-40
2021/12/12 00:04:32;;;;;;;12.00;5.95;;;2.60;99.90;;;0.88;100.00;101824.22;2568094;30;136686;-40
2021/12/12 00:07:09;;;;;;;16.52;6.53;;;2.70;99.90;;;0.86;100.00;101812.75;2569017;30;138185;-40
2021/12/12 00:09:45;;;;;;;15.90;6.63;;;2.70;99.90;;;0.83;100.00;101807.63;2567857;30;137365;-40
2021/12/12 00:12:22;;;;;;;14.45;5.75;;;2.60;99.90;;;0.89;100.00;101807.13;2568405;30;138079;-40
2021/12/12 00:14:51;;;;;;;13.13;6.13;;;2.70;99.90;;;0.91;100.00;101817.72;2567488;30;138284;-40
2021/12/12 00:17:20;;;;;;;20.23;6.90;;;2.70;99.90;;;0.90;100.00;101824.97;2568170;30;138265;-40
2021/12/12 00:19:49;;;;;;;16.23;6.78;;;2.70;99.90;;;0.92;100.00;101811.38;2567790;30;137667;-40
2021/12/12 00:22:23;;;;;;;14.63;6.15;;;2.70;99.90;;;0.95;100.00;101820.06;2568063;30;137517;-40
2021/12/12 00:24:51;;;;;;;13.73;5.57;;;2.70;99.90;;;0.95;100.00;101816.53;2567396;30;138357;-40
2021/12/12 00:27:21;;;;;;;15.98;6.20;;;2.70;99.90;;;0.93;100.00;101826.53;2564965;30;138325;-40
2021/12/12 00:29:50;;;;;;;16.25;6.22;;;2.70;99.90;;;0.95;100.00;101820.06;2566934;30;138110;-39
2021/12/12 00:32:23;;;;;;;14.43;6.70;;;2.80;99.90;;;0.99;100.00;101828.72;2568630;30;138427;-40
2021/12/12 00:34:59;;;;;;;10.88;5.60;;;2.80;99.90;;;1.05;100.00;101821.97;2567442;30;136693;-40
2021/12/12 00:37:28;;;;;;;13.73;6.10;;;2.80;99.90;;;1.03;100.00;101821.25;2568931;30;138391;-40
2021/12/12 00:40:05;;;;;;;13.27;6.20;;;2.80;99.90;;;1.04;100.00;101821.16;2567572;30;136939;-40
2021/12/12 00:42:37;;;;;;;13.95;6.45;;;2.80;99.90;;;1.06;100.00;101815.63;2569670;30;137229;-40
2021/12/12 00:45:14;;;;;;;14.45;6.05;;;2.80;99.90;;;1.13;100.00;101816.84;2567846;30;138196;-40
2021/12/12 00:47:45;;;;;;;13.27;6.57;;;2.90;99.90;;;1.16;100.00;101816.59;2566698;30;138375;-39
2021/12/12 00:50:23;;;;;;;14.82;6.38;;;2.90;99.90;;;1.19;100.00;101804.72;2568513;30;137028;-40
2021/12/12 00:52:52;;;;;;;15.07;5.77;;;2.90;99.90;;;1.19;100.00;101804.72;2567495;30;138190;-40
2021/12/12 00:55:20;;;;;;;16.45;7.35;;;2.90;99.90;;;1.22;100.00;101797.25;2567472;30;136691;-40
2021/12/12 00:57:53;;;;;;;15.40;6.22;;;3.00;99.90;;;1.21;100.00;101787.50;2569499;30;136851;-40
2021/12/12 01:00:31;;;;;;;13.60;6.03;;;3.00;99.90;;;1.19;100.00;101775.16;2567999;30;137496;-39
2021/12/12 01:02:59;;;;;;;11.52;5.88;;;3.00;99.90;;;1.22;100.00;101774.91;2566236;30;137744;-40
2021/12/12 01:05:27;;;;;;;16.35;6.03;;;3.00;99.90;;;1.21;100.00;101775.91;2567925;30;139333;-40
2021/12/12 01:07:58;;;;;;;15.25;6.28;;;3.00;99.90;;;1.25;100.00;101786.25;2567856;30;136811;-40
2021/12/12 01:10:45;;;;;;;12.88;6.03;;;3.00;99.90;;;1.26;100.00;101785.28;2567945;30;137107;-40
2021/12/12 01:13:13;;;;;;;14.10;5.60;;;3.00;99.90;;;1.27;100.00;101789.66;2567298;30;139081;-39
2021/12/12 01:15:50;;;;;;;;;;;3.00;99.90;;;1.25;100.00;101786.25;2567948;30;137659;-40
2021/12/12 01:18:33;;;;;;;16.40;4.97;;;3.00;99.90;;;1.29;100.00;101782.31;2568641;30;138308;-40
2021/12/12 01:21:14;;;;;;;12.95;5.93;;;3.10;99.90;;;1.27;100.00;101784.28;2566744;30;137750;-40
2021/12/12 01:23:52;;;;;;;11.93;5.30;;;3.10;99.90;;;1.27;100.00;101786.97;2567549;30;138414;-40
2021/12/12 01:26:20;;;;;;;;;;;3.10;99.90;;;1.32;100.00;101785.72;2568723;30;137714;-40
2021/12/12 01:28:54;;;;;;;12.68;5.38;;;3.10;99.90;;;1.34;100.00;101786.50;2567287;30;139164;-40
2021/12/12 01:31:30;;;;;;;10.77;5.15;;;3.10;99.90;;;1.44;100.00;101779.34;2568129;30;137684;-40
2021/12/12 01:34:11;;;;;;;11.95;4.93;;;3.20;99.90;;;1.42;100.00;101781.31;2568442;30;138203;-40
2021/12/12 01:40:11;;;;;;;9.68;5.30;;;3.20;99.90;;;1.47;100.00;101778.25;2568303;30;138206;-40
2021/12/12 01:42:55;;;;;;;11.35;4.93;;;3.20;99.90;;;1.52;100.00;101776.84;2567061;30;138134;-40
2021/12/12 01:45:43;;;;;;;8.63;4.88;;;3.30;99.90;;;1.55;100.00;101773.91;2567753;30;138192;-40
2021/12/12 01:48:27;;;;;;;10.73;4.97;;;3.30;99.90;;;1.61;100.00;101769.84;2568126;30;136910;-40
2021/12/12 01:51:08;;;;;;;13.18;4.88;;;3.30;99.90;;;1.62;100.00;101776.94;2567422;30;138279;-40
2021/12/12 01:53:42;;;;;;;12.70;4.65;;;3.40;99.90;;;1.68;100.00;101764.81;2568064;30;138145;-40
2021/12/12 01:56:17;;;;;;;9.40;4.75;;;3.40;99.90;;;1.64;100.00;101766.91;2566910;30;138394;-40
2021/12/12 01:58:55;;;;;;;8.93;4.35;;;3.40;99.90;;;1.71;100.00;101765.38;2568949;30;137620;-40
2021/12/12 02:01:31;;;;;;;12.82;4.03;;;3.40;99.90;;;1.76;100.00;101770.38;2567232;30;138327;-39
2021/12/12 02:04:07;;;;;;;13.23;4.90;;;3.50;99.90;;;1.78;100.00;101764.88;2566314;30;137804;-40
2021/12/12 02:06:35;;;;;;;11.07;4.57;;;3.50;99.90;;;1.79;100.00;101766.59;2568426;30;138096;-40
2021/12/12 02:09:06;;;;;;;11.50;4.32;;;3.50;99.90;;;1.83;100.00;101760.78;2567781;30;138124;-39
2021/12/12 02:11:35;;;;;;;13.45;4.57;;;3.60;99.90;;;1.85;100.00;101757.97;2568111;30;138247;-39
2021/12/12 02:14:11;;;;;;;12.32;4.82;;;3.60;99.90;;;1.85;100.00;101764.19;2566954;30;137220;-40
2021/12/12 02:16:55;;;;;;;10.68;5.03;;;3.60;99.90;;;1.90;100.00;101763.81;2567324;30;138250;-40
2021/12/12 02:19:30;;;;;;;11.98;4.43;;;3.60;99.90;;;1.94;100.00;101761.72;2567199;30;137425;-40
2021/12/12 02:22:16;;;;;;;14.95;4.57;;;3.60;99.90;;;1.96;100.00;101765.13;2567661;30;138151;-39
2021/12/12 02:35:08;;;;;;;10.88;4.38;;;3.70;99.90;;;1.98;100.00;101760.47;2567705;30;137615;-40
2021/12/12 02:36:16;;;;;;;12.35;4.63;;;3.80;99.90;;;2.13;100.00;101759.13;2567497;30;137288;-40
2021/12/12 02:38:46;;;;;;;6.72;4.10;;;3.80;99.90;;;2.13;100.00;101759.13;2567307;30;137344;-40
2021/12/12 02:41:18;;;;;;;11.95;4.45;;;3.90;99.90;;;2.13;100.00;101755.56;2565697;30;137355;-40
2021/12/12 02:43:57;;;;;;;11.20;4.38;;;3.80;99.90;;;2.16;100.00;101749.91;2568381;30;138602;-39
2021/12/12 02:46:35;;;;;;;13.43;4.65;;;3.90;99.90;;;2.17;100.00;101754.31;2568492;30;137618;-40
2021/12/12 02:49:23;;;;;;;10.23;4.20;;;3.90;99.90;;;2.29;100.00;101747.00;2567199;30;137463;-40
2021/12/12 02:51:52;;;;;;;11.68;4.10;;;4.00;99.90;;;2.24;100.00;101758.16;2568395;30;136908;-40
2021/12/12 02:54:21;;;;;;;11.57;4.70;;;4.00;99.90;;;2.26;100.00;101758.91;2565352;30;138326;-40
2021/12/12 02:56:50;;;;;;;10.57;4.00;;;4.00;99.90;;;2.32;100.00;101759.34;2569398;30;136784;-40
2021/12/12 02:59:23;;;;;;;10.40;3.95;;;4.00;99.90;;;2.25;100.00;101756.34;2567967;30;138508;-40
2021/12/12 03:02:12;;;;;;;12.75;4.13;;;4.00;99.90;;;2.20;100.00;101750.53;2567724;30;138575;-40
2021/12/12 03:04:42;;;;;;;9.60;4.03;;;4.00;99.90;;;2.21;100.00;101758.44;2566962;30;138272;-40
2021/12/12 03:07:11;;;;;;;11.60;3.90;;;4.00;99.90;;;2.21;100.00;101750.38;2568408;30;136955;-40
2021/12/12 03:09:45;;;;;;;8.48;4.35;;;3.90;99.90;;;2.22;100.00;101746.69;2568997;30;138104;-40
2021/12/12 03:12:23;;;;;;;11.70;4.32;;;3.90;99.90;;;2.23;100.00;101744.84;2566916;30;138229;-40
2021/12/12 03:14:53;;;;;;;9.57;3.87;;;4.00;99.90;;;2.29;100.00;101747.88;2567656;30;138164;-40
2021/12/12 03:17:23;;;;;;;12.50;3.90;;;4.00;99.90;;;2.29;100.00;101747.00;2569096;30;137104;-40
2021/12/12 03:20:01;;;;;;;7.72;3.90;;;4.00;99.90;;;2.26;100.00;101748.16;2567190;38;138170;-40
2021/12/12 03:22:29;;;;;;;10.43;4.05;;;4.00;99.90;;;2.29;100.00;101752.38;2569044;30;136852;-40
2021/12/12 03:24:57;;;;;;;8.60;3.75;;;4.00;99.90;;;2.30;100.00;101752.28;2567942;30;137335;-40
2021/12/12 03:27:26;;;;;;;11.00;3.95;;;4.00;99.90;;;2.28;100.00;101746.16;2569091;30;136810;-40
2021/12/12 03:29:54;;;;;;;8.30;4.03;;;4.00;99.90;;;2.38;100.00;101756.13;2567759;30;137495;-40
2021/12/12 09:35:59;;;;;;;14.55;8.60;;;4.00;99.90;;;4.02;100.00;101824.03;2566603;30;136929;-39
2021/12/12 09:38:40;;;;;;;14.00;7.95;;;5.70;99.90;;;4.05;100.00;101814.78;2568606;30;137094;-39
2021/12/12 09:41:23;;;;;;;15.32;8.57;;;5.70;99.90;;;4.11;100.00;101814.19;2567738;30;137919;-39
2021/12/12 09:44:02;;;;;;;15.55;8.95;;;5.70;99.90;;;4.13;100.00;101821.16;2567431;30;137481;-40
2021/12/12 09:53:40;;;;;;;15.05;8.02;;;5.80;99.90;;;4.20;100.00;101824.16;2567470;30;138350;-39
2021/12/12 09:57:10;;;;;;;14.48;8.10;;;5.80;99.90;;;4.22;100.00;101823.97;2565174;30;138464;-39
2021/12/12 10:00:17;;;;;;;14.18;8.05;;;5.90;99.90;;;4.24;100.00;101824.69;2565092;30;139316;-39
2021/12/12 10:03:12;;;;;;;11.38;6.97;;;5.90;99.90;;;4.27;100.00;101819.00;2568348;30;136920;-39
2021/12/12 10:06:16;;;;;;;12.45;7.25;;;5.90;99.90;;;4.38;100.00;101818.81;2567970;30;139192;-39
2021/12/12 10:08:54;;;;;;;11.52;6.63;;;6.00;99.90;;;4.40;100.00;101819.53;2568465;30;137839;-39
2021/12/12 10:11:33;;;;;;;11.75;6.90;;;6.00;99.90;;;4.41;100.00;101815.00;2567984;30;137081;-39
2021/12/12 10:14:33;;;;;;;12.32;6.38;;;6.00;99.90;;;4.36;100.00;101814.56;2566619;30;137443;-39
2021/12/12 10:17:26;;;;;;;10.30;5.80;;;6.00;99.90;;;4.42;100.00;101822.94;2567286;30;137423;-39
2021/12/12 10:20:21;;;;;;;9.45;5.82;;;6.10;99.90;;;4.48;100.00;101824.19;2568034;30;136759;-39
2021/12/12 10:23:27;;;;;;;9.82;5.65;;;6.10;99.90;;;4.50;100.00;101818.63;2568122;30;138386;-39
2021/12/12 10:26:17;;;;;;;10.88;6.00;;;6.10;99.90;;;4.51;100.00;101815.78;2567710;30;136707;-39
2021/12/12 10:28:58;;;;;;;11.43;6.10;;;6.10;99.90;;;4.54;100.00;101817.38;2568616;30;138264;-39
2021/12/12 10:31:46;;;;;;;11.30;5.45;;;6.20;99.90;;;4.57;100.00;101828.72;2564451;30;137941;-39
2021/12/12 10:34:43;;;;;;;9.93;5.18;;;6.20;99.90;;;4.57;100.00;101830.56;2567296;30;137948;-39
2021/12/12 10:37:23;;;;;;;11.57;5.47;;;6.20;99.90;;;4.59;100.00;101834.81;2567724;30;137548;-39
2021/12/12 10:40:15;;;;;;;9.32;5.07;;;6.20;99.90;;;4.63;100.00;101827.28;2567005;30;138113;-39
2021/12/12 10:42:49;;;;;;;10.15;5.38;;;6.30;99.90;;;4.66;100.00;101823.44;2568073;30;137327;-39
2021/12/12 10:45:26;;;;;;;9.50;4.90;;;6.30;99.90;;;4.68;100.00;101827.66;2568613;30;138290;-39
2021/12/12 10:48:16;;;;;;;10.93;5.22;;;6.30;99.90;;;4.68;100.00;101830.38;2568844;30;137407;-39
2021/12/12 10:50:52;;;;;;;10.50;5.20;;;6.30;99.90;;;4.71;100.00;101826.53;2568654;30;137903;-39
2021/12/12 10:54:05;;;;;;;8.05;5.10;;;6.30;99.90;;;4.77;100.00;101820.53;2569298;30;137635;-39
2021/12/12 10:56:44;;;;;;;9.32;4.93;;;6.40;99.90;;;4.82;100.00;101830.91;2567827;30;139254;-39
2021/12/12 10:59:23;;;;;;;8.57;4.80;;;6.40;99.90;;;4.88;100.00;101830.28;2567052;30;137348;-39
2021/12/12 11:02:03;;;;;;;9.07;4.90;;;6.50;99.90;;;4.89;100.00;101834.69;2569011;30;138247;-39
2021/12/12 11:04:55;;;;;;;10.38;4.47;;;6.50;99.90;;;4.85;100.00;101827.88;2567995;30;137362;-39
2021/12/12 11:07:35;;;;;;;7.78;4.97;;;6.50;99.90;;;4.81;100.00;101829.19;2568374;30;137686;-39
2021/12/12 11:10:09;;;;;;;9.30;4.78;;;6.40;99.90;;;4.92;100.00;101823.56;2568707;30;136872;-39
2021/12/12 11:12:45;;;;;;;9.32;4.78;;;6.50;99.90;;;4.91;100.00;101835.41;2566895;30;138301;-39
2021/12/12 11:15:23;;;;;;;8.52;4.63;;;6.50;99.90;;;4.89;100.00;101832.84;2567386;30;138072;-39
2021/12/12 11:18:00;;;;;;;8.65;4.95;;;6.50;99.90;;;4.91;100.00;101835.41;2566977;30;136675;-39
2021/12/12 11:20:43;;;;;;;9.77;4.57;;;6.50;99.90;;;4.95;100.00;101834.09;2567852;30;137518;-39
2021/12/12 11:23:48;;;;;;;10.40;5.20;;;6.50;99.90;;;5.01;100.00;101827.22;2567095;30;137690;-39
2021/12/12 11:26:33;;;;;;;9.85;5.13;;;6.60;99.90;;;4.99;100.00;101831.94;2567662;30;137547;-39
2021/12/12 11:29:17;;;;;;;12.05;5.25;;;6.60;99.90;;;4.96;100.00;101830.38;2566529;30;139321;-39
2021/12/12 11:31:55;;;;;;;12.40;5.10;;;6.60;99.90;;;4.96;100.00;101824.97;2569048;30;137525;-39
2021/12/12 11:34:46;;;;;;;7.75;4.88;;;6.60;99.90;;;4.99;100.00;101824.66;2568472;30;138411;-39
2021/12/12 11:37:43;;;;;;;13.27;6.70;;;6.60;99.90;;;5.02;100.00;101826.22;2567306;30;137453;-39
2021/12/12 11:40:22;;;;;;;8.10;5.22;;;6.60;99.90;;;5.03;100.00;101836.03;2568940;30;136964;-39
2021/12/12 11:43:20;;;;;;;11.65;5.57;;;6.70;99.90;;;5.02;100.00;101829.78;2568651;30;136848;-39
2021/12/12 11:46:00;;;;;;;11.27;5.03;;;6.60;99.90;;;5.04;100.00;101835.91;2567268;30;138417;-39
2021/12/12 11:48:33;;;;;;;8.90;6.07;;;6.60;99.90;;;5.08;100.00;101838.31;2567890;30;137045;-39
2021/12/12 11:51:24;;;;;;;8.40;5.28;;;6.70;99.90;;;5.09;100.00;101830.03;2567175;30;138290;-39
2021/12/12 11:53:59;;;;;;;9.50;5.53;;;6.70;99.90;;;5.06;100.00;101832.19;2568348;30;137448;-39
2021/12/12 11:56:32;;;;;;;12.50;5.82;;;6.70;99.90;;;5.12;100.00;101843.25;2568139;30;137834;-39
2021/12/12 11:59:49;;;;;;;10.43;5.78;;;6.70;99.90;;;5.11;100.00;101832.59;2567684;30;137478;-39
2021/12/12 12:02:54;;;;;;;8.80;5.55;;;6.70;99.90;;;5.09;100.00;101835.44;2568672;30;138171;-39
2021/12/12 12:05:58;;;;;;;8.45;5.85;;;6.70;99.90;;;5.14;100.00;101835.81;2565467;30;137505;-39
2021/12/12 12:08:34;;;;;;;8.75;5.70;;;6.80;99.90;;;5.20;100.00;101837.09;2568348;30;136884;-39
2021/12/12 12:11:37;;;;;;;10.32;6.10;;;6.80;99.90;;;5.22;100.00;101839.66;2567816;30;137555;-39
2021/12/12 12:15:04;;;;;;;9.75;6.15;;;6.80;99.90;;;5.25;100.00;101833.94;2568064;30;137999;-39
2021/12/12 12:18:22;;;;;;;10.60;6.90;;;6.80;99.90;;;5.24;100.00;101833.06;2567607;30;137398;-39
2021/12/12 12:21:24;;;;;;;8.90;6.22;;;6.80;99.90;;;5.27;100.00;101832.75;2569028;30;138316;-39
2021/12/12 12:24:12;;;;;;;10.10;6.18;;;6.90;99.90;;;5.32;100.00;101837.72;2566938;30;138427;-39
2021/12/12 12:26:51;;;;;;;9.37;6.40;;;6.90;99.90;;;5.34;100.00;101827.59;2568394;30;139061;-39
2021/12/12 12:29:28;;;;;;;11.25;6.70;;;6.90;99.90;;;5.32;100.00;101829.59;2568324;30;138195;-39
2021/12/12 12:32:07;;;;;;;9.27;6.40;;;6.90;99.90;;;5.33;100.00;101831.31;2566824;30;139106;-39
2021/12/12 12:35:33;;;;;;;9.70;7.13;;;6.90;99.90;;;5.35;100.00;101833.88;2566461;30;137614;-39
2021/12/12 12:38:54;;;;;;;11.07;6.53;;;6.90;99.90;;;5.42;100.00;101829.53;2566985;30;137258;-39
2021/12/12 12:41:45;;;;;;;9.93;6.43;;;7.00;99.90;;;5.47;100.00;101829.91;2565145;30;137880;-39
2021/12/12 12:44:53;;;;;;;10.32;7.03;;;7.00;99.90;;;5.49;100.00;101832.50;2566157;30;137196;-39
2021/12/12 12:47:58;;;;;;;10.45;6.68;;;7.10;99.90;;;5.50;100.00;101831.47;2568736;30;136998;-40
2021/12/12 12:50:47;;;;;;;9.23;6.07;;;7.10;99.90;;;5.51;100.00;101833.19;2565417;30;138608;-39
2021/12/12 12:54:04;;;;;;;9.90;6.32;;;7.10;99.90;;;5.53;100.00;101837.41;2568192;30;137430;-39
2021/12/12 12:57:19;;;;;;;10.45;6.75;;;7.10;99.90;;;5.52;100.00;101834.88;2568831;30;137119;-39
2021/12/12 13:00:07;;;;;;;9.80;6.25;;;7.10;99.90;;;5.55;100.00;101845.41;2567435;30;137444;-39
2021/12/12 13:02:44;;;;;;;9.73;6.25;;;7.20;99.90;;;5.56;100.00;101837.09;2568194;30;137479;-39
2021/12/12 13:05:40;;;;;;;9.80;6.40;;;7.10;99.90;;;5.59;100.00;101836.81;2567578;30;136716;-39
2021/12/12 13:08:50;;;;;;;11.02;5.72;;;7.20;99.90;;;5.61;100.00;101829.41;2568126;30;137915;-39
2021/12/12 13:11:22;;;;;;;;;;;7.20;99.90;;;5.66;100.00;101830.78;2568238;30;136958;-39
2021/12/12 13:14:26;;;;;;;9.50;6.05;;;7.20;99.90;;;5.64;100.00;101835.50;2567650;30;138391;-39
2021/12/12 13:17:29;;;;;;;11.45;6.00;;;7.20;99.90;;;5.68;100.00;101834.19;2568263;30;137482;-39
2021/12/12 13:20:29;;;;;;;7.72;5.55;;;7.20;99.90;;;5.66;100.00;101839.75;2567523;30;137513;-39
2021/12/12 13:23:15;;;;;;;7.97;5.85;;;7.30;99.90;;;5.71;100.00;101831.16;2567312;30;138388;-39
2021/12/12 13:26:30;;;;;;;8.10;5.68;;;7.30;99.90;;;5.70;100.00;101835.75;2565886;30;138506;-39
2021/12/12 13:29:16;;;;;;;8.32;5.75;;;7.30;99.90;;;5.69;100.00;101839.44;2567587;30;137439;-39
2021/12/12 13:32:19;;;;;;;8.68;5.97;;;7.30;99.90;;;5.73;100.00;101843.56;2567649;30;137454;-39
2021/12/12 13:35:57;;;;;;;10.38;6.18;;;7.30;99.90;;;5.75;100.00;101849.66;2567333;30;137743;-39
2021/12/12 13:39:12;;;;;;;9.77;6.00;;;7.40;99.90;;;5.78;100.00;101847.66;2566354;30;138355;-39
2021/12/12 13:42:12;;;;;;;10.45;6.95;;;7.30;99.90;;;5.76;100.00;101853.19;2568369;30;138395;-39
2021/12/12 13:45:28;;;;;;;12.23;7.57;;;7.40;99.90;;;5.78;100.00;101848.47;2566528;30;139247;-39
2021/12/12 13:48:32;;;;;;;9.85;6.50;;;7.40;99.90;;;5.76;100.00;101856.78;2567919;30;138290;-39
2021/12/12 13:51:34;;;;;;;11.90;7.10;;;7.40;99.90;;;5.79;100.00;101852.06;2568131;30;138322;-39
2021/12/12 13:54:25;;;;;;;11.80;7.50;;;7.40;99.90;;;5.81;100.00;101856.28;2568111;30;137577;-39
2021/12/12 13:57:30;;;;;;;11.35;7.90;;;7.40;99.90;;;5.86;100.00;101836.88;2567202;30;138426;-39
2021/12/12 14:00:29;;;;;;;13.82;8.10;;;7.40;99.90;;;5.88;100.00;101856.53;2568018;30;138425;-39
2021/12/12 14:03:06;;;;;;;12.65;8.68;;;7.50;99.90;;;5.89;100.00;101858.22;2567384;30;138330;-39
2021/12/12 14:05:42;;;;;;;13.82;9.65;;;7.50;99.90;;;5.94;100.00;101861.31;2566421;30;137541;-39
2021/12/12 14:08:25;;;;;;;12.80;9.45;;;7.50;99.90;;;5.97;100.00;101861.03;2567191;30;138273;-39
2021/12/12 14:11:05;;;;;;;15.30;9.85;;;7.60;99.90;;;6.00;100.00;101865.25;2564865;30;138317;-39
2021/12/12 14:13:45;;;;;;;12.57;9.07;;;7.60;99.90;;;6.00;100.00;101859.84;2567685;30;138333;-39
2021/12/12 14:16:18;;;;;;;12.05;8.60;;;7.60;99.90;;;6.00;100.00;101862.56;2567512;30;137473;-39
2021/12/12 14:18:55;;;;;;;12.80;8.70;;;7.60;99.90;;;6.03;100.00;101862.25;2565534;30;138319;-39
2021/12/12 14:21:24;;;;;;;13.45;8.60;;;7.60;99.90;;;6.04;100.00;101867.53;2567289;30;138174;-39
2021/12/12 14:23:52;;;;;;;13.13;9.10;;;7.60;99.90;;;6.04;100.00;101859.41;2567596;30;139079;-39
2021/12/12 14:26:36;;;;;;;12.10;7.85;;;7.70;99.90;;;6.15;100.00;101866.44;2566346;30;136897;-39
2021/12/12 14:29:11;;;;;;;10.50;6.10;;;7.70;99.90;;;6.13;100.00;101863.03;2568249;30;138347;-39
2021/12/12 14:31:50;;;;;;;10.73;6.30;;;7.70;99.90;;;6.17;100.00;101867.13;2567373;30;137428;-39
2021/12/12 14:34:27;;;;;;;;;;;7.80;99.90;;;6.24;100.00;101866.50;2568611;30;138224;-39
2021/12/12 14:37:02;;;;;;;9.40;5.50;;;7.80;99.90;;;6.20;100.00;101871.38;2568677;30;137045;-39
2021/12/12 14:39:31;;;;;;;7.88;4.90;;;7.80;99.90;;;6.26;100.00;101875.31;2566287;30;138347;-39
2021/12/12 14:42:24;;;;;;;10.30;5.50;;;7.80;99.90;;;6.27;100.00;101875.16;2563949;30;137548;-39
2021/12/12 14:45:10;;;;;;;7.85;5.13;;;7.90;99.90;;;6.29;100.00;101877.72;2564539;30;139189;-39
2021/12/12 14:47:45;;;;;;;7.50;4.43;;;7.90;99.90;;;6.31;100.00;101872.97;2567615;30;138377;-39
2021/12/12 14:50:24;;;;;;;7.65;4.05;;;7.90;99.90;;;6.37;100.00;101882.34;2567049;30;138998;-39
2021/12/12 14:53:05;;;;;;;6.28;3.60;;;7.90;99.90;;;6.41;100.00;101883.72;2566104;30;137462;-39
2021/12/12 14:55:53;;;;;;;6.43;4.30;;;8.00;99.90;;;6.44;100.00;101884.25;2567239;30;138306;-39
2021/12/12 14:58:30;;;;;;;6.32;3.70;;;8.00;99.90;;;6.44;100.00;101888.81;2567797;30;137069;-39
2021/12/12 15:01:16;;;;;;;7.60;3.42;;;8.00;99.90;;;6.42;100.00;101889.00;2565944;30;138301;-39
2021/12/12 15:03:51;;;;;;;5.20;3.63;;;8.00;99.90;;;6.44;100.00;101892.41;2565952;30;136904;-39
2021/12/12 15:06:30;;;;;;;5.90;3.58;;;8.00;99.90;;;6.52;100.00;101896.16;2565865;30;138372;-39
2021/12/12 15:09:11;;;;;;;;;;;8.10;99.90;;;6.52;100.00;101897.03;2567479;30;137580;-39
2021/12/12 15:11:51;;;;;;;4.88;3.47;;;8.10;99.90;;;6.57;100.00;101897.41;2564479;30;138544;-39
2021/12/12 15:14:22;;;;;;;5.63;3.72;;;8.10;99.90;;;6.56;100.00;101897.53;2567435;30;138137;-39
2021/12/12 15:16:52;;;;;;;6.47;3.85;;;8.10;99.90;;;6.56;100.00;101902.97;2568571;30;137358;-39
2021/12/12 15:19:30;;;;;;;5.85;3.95;;;8.10;99.90;;;6.58;100.00;101893.69;2565310;30;137430;-39
2021/12/12 15:22:08;;;;;;;5.35;3.90;;;8.20;99.90;;;6.57;100.00;101899.25;2567991;30;138718;-39
2021/12/12 15:24:46;;;;;;;5.25;3.83;;;8.10;99.90;;;6.58;100.00;101906.38;2567888;30;137080;-39
2021/12/12 15:27:45;;;;;;;6.10;3.92;;;8.20;99.90;;;6.59;100.00;101913.50;2568591;30;137356;-39
2021/12/12 15:30:26;;;;;;;5.72;3.58;;;8.10;99.90;;;6.54;100.00;101914.00;2566290;30;137291;-39
2021/12/12 15:33:04;;;;;;;6.40;4.10;;;8.20;99.90;;;6.55;100.00;101918.41;2568191;30;138356;-40
2021/12/12 15:35:39;;;;;;;7.60;4.20;;;8.20;99.90;;;6.51;100.00;101917.03;2576963;30;137643;-39
2021/12/12 15:38:21;;;;;;;6.72;4.43;;;8.10;99.90;;;6.55;100.00;101931.09;2571556;30;138318;-39
2021/12/12 15:40:58;;;;;;;7.80;4.10;;;8.20;99.90;;;6.57;100.00;101920.94;2569230;30;136753;-39
2021/12/12 15:43:35;;;;;;;6.00;3.53;;;8.20;99.90;;;6.58;100.00;101925.34;2569315;30;137394;-39
2021/12/12 15:46:13;;;;;;;6.88;3.97;;;8.20;99.90;;;6.58;100.00;101928.06;2567998;30;137143;-39
2021/12/12 15:48:54;;;;;;;7.27;4.07;;;8.20;99.90;;;6.57;100.00;101938.06;2571057;30;137195;-39
2021/12/12 15:51:28;;;;;;;6.38;4.05;;;8.20;99.90;;;6.60;100.00;101918.75;2570637;30;138369;-39
2021/12/12 15:54:04;;;;;;;5.20;3.58;;;8.20;99.90;;;6.61;100.00;101922.31;2569881;30;138973;-39
2021/12/12 15:56:50;;;;;;;6.05;3.90;;;8.20;99.90;;;6.61;100.00;101925.88;2570144;30;137698;-39
2021/12/12 15:59:30;;;;;;;8.32;4.13;;;8.20;99.90;;;6.59;100.00;101935.19;2568367;30;138327;-39
2021/12/12 16:02:18;;;;;;;6.60;4.28;;;8.20;99.90;;;6.65;100.00;101931.84;2568446;30;138389;-39
2021/12/12 16:04:49;;;;;;;7.93;4.97;;;8.20;99.90;;;6.59;100.00;101935.19;2569566;30;137755;-39
2021/12/12 16:07:20;;;;;;;7.63;4.93;;;8.20;99.90;;;6.61;100.00;101944.00;2567148;30;137665;-39
2021/12/12 16:09:59;;;;;;;6.90;4.80;;;8.20;99.90;;;6.65;100.00;101945.41;2566460;30;137380;-39
2021/12/12 16:12:28;;;;;;;8.02;4.93;;;8.20;99.90;;;6.64;100.00;101942.84;2570130;30;137435;-39
2021/12/12 16:14:59;;;;;;;7.68;5.10;;;8.20;99.90;;;6.67;100.00;101948.81;2569462;30;138233;-39
2021/12/12 16:17:34;;;;;;;7.80;5.15;;;8.30;99.90;;;6.63;100.00;101947.44;2570203;30;136821;-39
2021/12/12 16:20:34;;;;;;;9.80;6.13;;;8.20;99.90;;;6.74;100.00;101952.59;2570373;30;138279;-39
2021/12/12 16:23:09;;;;;;;8.85;5.80;;;8.30;99.90;;;6.67;100.00;101953.38;2568276;30;137328;-39
2021/12/12 16:25:41;;;;;;;7.70;5.60;;;8.20;99.90;;;6.63;100.00;101952.88;2567615;30;137227;-39
2021/12/12 16:28:18;;;;;;;9.43;5.60;;;8.20;99.90;;;6.65;100.00;101955.41;2568719;30;136980;-39
2021/12/12 16:31:06;;;;;;;7.65;5.80;;;8.20;99.90;;;6.64;100.00;101957.28;2566313;30;138327;-39
2021/12/12 16:34:04;;;;;;;7.47;5.32;;;8.20;99.90;;;6.62;100.00;101970.97;2569132;30;137384;-39
2021/12/12 16:36:49;;;;;;;10.90;6.25;;;8.20;99.90;;;6.65;100.00;101967.13;2567973;30;139069;-39
2021/12/12 16:39:27;;;;;;;9.18;5.45;;;8.20;99.90;;;6.61;100.00;101965.69;2570161;30;136931;-39
2021/12/12 16:42:08;;;;;;;9.23;6.25;;;8.20;99.90;;;6.61;100.00;101973.84;2569630;30;139029;-39
2021/12/12 16:44:55;;;;;;;8.50;5.47;;;8.20;99.90;;;6.62;100.00;101975.53;2570237;30;136882;-39
2021/12/12 16:47:31;;;;;;;9.68;5.97;;;8.20;99.90;;;6.59;100.00;101967.72;2570433;30;138117;-39
2021/12/12 16:50:07;;;;;;;7.75;5.82;;;8.20;99.90;;;6.60;100.00;101969.44;2568937;30;137873;-40
2021/12/12 16:52:41;;;;;;;7.63;5.35;;;8.20;99.90;;;6.62;100.00;101973.69;2569633;30;137335;-39
2021/12/12 16:55:21;;;;;;;11.43;5.90;;;8.20;99.90;;;6.61;100.00;101973.84;2569772;30;137562;-39
2021/12/12 16:58:03;;;;;;;8.98;5.97;;;8.20;99.90;;;6.61;100.00;101969.28;2569178;30;138238;-39
2021/12/12 17:00:42;;;;;;;12.27;5.93;;;8.20;99.90;;;6.61;100.00;101968.41;2570508;30;137062;-39
2021/12/12 17:03:41;;;;;;;8.95;6.25;;;8.20;99.90;;;6.67;100.00;101970.53;2569552;30;137069;-39
2021/12/12 17:06:25;;;;;;;8.90;6.32;;;8.20;99.90;;;6.70;100.00;101972.03;2569532;30;137777;-38
2021/12/12 17:11:32;;;;;;;8.80;6.40;;;8.30;99.90;;;6.70;100.00;101975.63;2570522;30;136691;-39
2021/12/12 17:14:28;;;;;;;9.70;6.32;;;8.30;99.90;;;6.70;100.00;101974.75;2568397;30;138434;-39
2021/12/12 17:16:58;;;;;;;9.07;6.55;;;8.30;99.90;;;6.75;100.00;101967.84;2569229;30;137755;-39
2021/12/12 17:19:35;;;;;;;9.52;6.38;;;8.30;99.90;;;6.72;100.00;101970.88;2569555;30;137342;-39
2021/12/12 17:22:12;;;;;;;10.80;6.82;;;8.30;99.90;;;6.74;100.00;101981.56;2570493;30;137553;-39
2021/12/12 17:24:49;;;;;;;8.73;6.40;;;8.30;99.90;;;6.79;100.00;101981.97;2567637;30;138528;-39
2021/12/12 17:27:21;;;;;;;8.10;6.47;;;8.40;99.90;;;6.76;100.00;101977.69;2570263;30;137733;-39
2021/12/12 17:29:58;;;;;;;9.80;6.88;;;8.30;99.90;;;6.74;100.00;101984.28;2569352;30;139533;-39
2021/12/12 17:33:04;;;;;;;11.07;7.82;;;8.30;99.90;;;6.69;100.00;101976.63;2570390;30;137439;-39
2021/12/12 17:35:48;;;;;;;9.68;7.15;;;8.30;99.90;;;6.75;100.00;101985.97;2568196;30;137677;-39
2021/12/12 17:38:32;;;;;;;12.15;7.57;;;8.30;99.90;;;6.73;100.00;101985.28;2569266;30;137463;-39
2021/12/12 17:41:11;;;;;;;13.90;7.95;;;8.30;99.90;;;6.74;100.00;101989.69;2569354;30;139117;-39